Time;durP1;ratioP1;P1;durP2;ratioP2;P2;SDS_P1;SDS_P2;PMS_P1;PMS_P2;Temp;Humidity;BMP_temperature;BMP_pressure;BME280_temperature;BME280_humidity;BME280_pressure;Samples;Min_cycle;Max_cycle;Signal;HPM_P1;HPM_P2
2023/04/22 00:04:14;;;;;;;3.53;1.40;;;;;;;;;;10555791;27;20066;-76
2023/04/22 00:09:17;;;;;;;3.00;1.47;;;;;;;;;;10552343;27;20062;-76
2023/04/22 00:14:22;;;;;;;5.00;2.28;;;;;;;;;;10557261;28;20662;-76
2023/04/22 00:19:25;;;;;;;4.68;1.80;;;;;;;;;;10560023;27;21113;-75
2023/04/22 00:24:28;;;;;;;6.33;2.00;;;;;;;;;;10557299;27;20133;-76
2023/04/22 00:29:33;;;;;;;3.72;1.85;;;;;;;;;;10558681;27;20474;-76
2023/04/22 00:34:36;;;;;;;;;;;;;;;;;;10534707;28;20039;-76
2023/04/22 00:39:38;;;;;;;2.67;1.55;;;;;;;;;;10552307;27;20354;-75
2023/04/22 00:44:44;;;;;;;5.13;1.75;;;;;;;;;;10556022;27;20115;-75
2023/04/22 00:49:47;;;;;;;6.40;1.70;;;;;;;;;;10539063;28;20414;-76
2023/04/22 00:54:51;;;;;;;3.53;1.70;;;;;;;;;;10545725;28;20101;-76
2023/04/22 00:59:56;;;;;;;4.20;2.28;;;;;;;;;;10548210;28;20116;-77
2023/04/22 01:05:00;;;;;;;4.22;1.90;;;;;;;;;;10553000;28;20115;-76
2023/04/22 01:10:03;;;;;;;4.82;1.83;;;;;;;;;;10547959;28;20424;-76
2023/04/22 01:15:07;;;;;;;;;;;;;;;;;;10562429;28;20036;-75
2023/04/22 01:20:12;;;;;;;4.57;1.90;;;;;;;;;;10559388;28;19985;-75
2023/04/22 01:25:16;;;;;;;5.20;2.00;;;;;;;;;;10550424;28;20044;-74
2023/04/22 01:30:20;;;;;;;6.10;1.92;;;;;;;;;;10553897;28;20092;-75
2023/04/22 01:35:23;;;;;;;4.65;1.85;;;;;;;;;;10547894;28;20048;-73
2023/04/22 01:40:28;;;;;;;3.38;1.90;;;;;;;;;;10547056;28;20179;-76
2023/04/22 01:45:31;;;;;;;4.35;1.88;;;;;;;;;;10522522;28;1159403;-74
2023/04/22 01:50:34;;;;;;;2.47;1.52;;;;;;;;;;10561361;27;20118;-77
2023/04/22 01:55:39;;;;;;;2.72;1.63;;;;;;;;;;10552557;27;20043;-77
2023/04/22 02:00:41;;;;;;;3.58;1.90;;;;;;;;;;10549135;27;20039;-76
2023/04/22 02:05:45;;;;;;;7.93;2.00;;;;;;;;;;10547433;28;20046;-75
2023/04/22 02:10:49;;;;;;;3.53;1.65;;;;;;;;;;10550057;27;20164;-75
2023/04/22 02:15:52;;;;;;;4.15;1.73;;;;;;;;;;10543748;27;20397;-75
2023/04/22 02:20:56;;;;;;;3.45;1.50;;;;;;;;;;10537995;27;20066;-75
2023/04/22 02:26:02;;;;;;;4.63;1.75;;;;;;;;;;10570821;27;20080;-77
2023/04/22 02:31:05;;;;;;;4.18;1.77;;;;;;;;;;10564917;27;20071;-76
2023/04/22 02:36:08;;;;;;;1.83;0.95;;;;;;;;;;10540061;28;20035;-76
2023/04/22 02:41:13;;;;;;;3.40;1.75;;;;;;;;;;10545462;27;20685;-76
2023/04/22 02:46:16;;;;;;;3.00;1.83;;;;;;;;;;10565670;27;20036;-76
2023/04/22 02:51:19;;;;;;;4.27;1.60;;;;;;;;;;10557542;27;20497;-77
2023/04/22 02:56:24;;;;;;;4.63;1.67;;;;;;;;;;10546327;27;20045;-77
2023/04/22 03:01:27;;;;;;;5.40;1.80;;;;;;;;;;10547698;27;20044;-76
2023/04/22 03:06:31;;;;;;;4.10;1.80;;;;;;;;;;10532731;27;20040;-76
2023/04/22 03:11:35;;;;;;;3.92;1.60;;;;;;;;;;10546556;28;20043;-76
2023/04/22 03:16:39;;;;;;;2.42;1.20;;;;;;;;;;10555710;27;20040;-76
2023/04/22 03:21:41;;;;;;;2.77;1.47;;;;;;;;;;10549559;27;20036;-75
2023/04/22 03:26:45;;;;;;;0.63;0.60;;;;;;;;;;10567436;27;20054;-76
2023/04/22 03:31:48;;;;;;;3.45;1.65;;;;;;;;;;10548167;27;20051;-76
2023/04/22 03:37:00;;;;;;;4.50;1.60;;;;;;;;;;10548124;28;20111;-75
2023/04/22 03:42:04;;;;;;;2.00;1.00;;;;;;;;;;10543494;28;20046;-76
2023/04/22 03:47:07;;;;;;;4.10;1.92;;;;;;;;;;10554037;28;20032;-75
2023/04/22 03:52:09;;;;;;;2.25;1.55;;;;;;;;;;10548129;28;20067;-75
2023/04/22 03:57:15;;;;;;;3.70;1.73;;;;;;;;;;10547160;28;20109;-75
2023/04/22 04:02:18;;;;;;;2.75;1.63;;;;;;;;;;10561534;28;20508;-76
2023/04/22 04:07:21;;;;;;;3.92;1.70;;;;;;;;;;10546404;28;20067;-76
2023/04/22 04:12:27;;;;;;;4.78;1.83;;;;;;;;;;10538113;28;20040;-75
2023/04/22 04:17:32;;;;;;;2.40;1.70;;;;;;;;;;10536298;28;20382;-76
2023/04/22 04:22:36;;;;;;;3.40;1.80;;;;;;;;;;10557904;28;20044;-77
2023/04/22 04:27:40;;;;;;;10.60;1.87;;;;;;;;;;10554994;28;20538;-78
2023/04/22 04:32:44;;;;;;;3.25;1.80;;;;;;;;;;10551695;28;20040;-78
2023/04/22 04:37:49;;;;;;;3.92;2.00;;;;;;;;;;10552093;28;20032;-76
2023/04/22 04:42:54;;;;;;;2.97;1.70;;;;;;;;;;10559941;27;20043;-76
2023/04/22 04:47:59;;;;;;;2.95;1.60;;;;;;;;;;10558415;27;20093;-77
2023/04/22 04:53:02;;;;;;;2.90;1.60;;;;;;;;;;10559289;27;20051;-75
2023/04/22 04:58:06;;;;;;;4.15;2.05;;;;;;;;;;10551296;27;20515;-76
2023/04/22 05:03:10;;;;;;;2.20;1.52;;;;;;;;;;10562470;27;20039;-76
2023/04/22 05:08:13;;;;;;;3.42;1.98;;;;;;;;;;10544811;27;20031;-75
2023/04/22 05:13:17;;;;;;;3.58;1.77;;;;;;;;;;10551490;28;20036;-75
2023/04/22 05:18:21;;;;;;;3.45;1.45;;;;;;;;;;10559413;28;20024;-74
2023/04/22 05:23:26;;;;;;;3.97;2.00;;;;;;;;;;10574805;27;20636;-76
2023/04/22 05:28:30;;;;;;;2.78;1.67;;;;;;;;;;10554036;27;20040;-76
2023/04/22 05:33:33;;;;;;;3.70;1.70;;;;;;;;;;10556806;28;20119;-76
2023/04/22 05:38:36;;;;;;;1.80;1.02;;;;;;;;;;10551629;27;20044;-76
2023/04/22 05:43:40;;;;;;;3.20;1.20;;;;;;;;;;10549813;28;20538;-75
2023/04/22 05:48:44;;;;;;;3.08;1.50;;;;;;;;;;10551803;27;20040;-76
2023/04/22 05:53:47;;;;;;;;;;;;;;;;;;10537529;27;20035;-76
2023/04/22 05:58:51;;;;;;;2.10;1.15;;;;;;;;;;10533145;28;19931;-75
2023/04/22 06:03:53;;;;;;;1.63;1.10;;;;;;;;;;10543252;28;20084;-76
2023/04/22 06:08:56;;;;;;;3.63;1.45;;;;;;;;;;10543988;27;20077;-75
2023/04/22 06:14:01;;;;;;;2.75;1.45;;;;;;;;;;10546214;27;20052;-78
2023/04/22 06:19:03;;;;;;;;;;;;;;;;;;10556485;27;20389;-76
2023/04/22 06:24:07;;;;;;;1.58;0.93;;;;;;;;;;10554032;27;20026;-77
2023/04/22 06:29:14;;;;;;;2.00;1.15;;;;;;;;;;10551383;27;20150;-76
2023/04/22 06:34:17;;;;;;;2.30;1.20;;;;;;;;;;10553072;27;20059;-76
2023/04/22 06:39:20;;;;;;;2.95;1.15;;;;;;;;;;10550381;27;20040;-76
2023/04/22 06:44:24;;;;;;;1.65;1.10;;;;;;;;;;10529220;28;20036;-76
2023/04/22 06:49:38;;;;;;;1.42;1.10;;;;;;;;;;10537671;28;20032;-76
2023/04/22 06:54:41;;;;;;;2.05;0.98;;;;;;;;;;10550242;28;20046;-75
2023/04/22 06:59:46;;;;;;;1.52;0.93;;;;;;;;;;10553896;28;20120;-75
2023/04/22 07:04:50;;;;;;;1.77;1.10;;;;;;;;;;10537016;28;20043;-76
2023/04/22 07:09:53;;;;;;;1.40;1.20;;;;;;;;;;10537890;28;20456;-77
2023/04/22 07:14:57;;;;;;;1.88;1.20;;;;;;;;;;10553070;27;20043;-77
2023/04/22 07:20:00;;;;;;;3.00;1.55;;;;;;;;;;10550478;28;20032;-76
2023/04/22 07:25:06;;;;;;;2.15;1.48;;;;;;;;;;10548091;27;20031;-77
2023/04/22 07:30:12;;;;;;;2.08;1.40;;;;;;;;;;10549034;27;20055;-76
2023/04/22 07:35:15;;;;;;;1.73;1.38;;;;;;;;;;10551092;27;20095;-75
2023/04/22 07:40:18;;;;;;;1.95;1.50;;;;;;;;;;10550603;27;20128;-76
2023/04/22 07:45:22;;;;;;;2.42;1.33;;;;;;;;;;10533612;28;20056;-76
2023/04/22 07:50:26;;;;;;;3.75;1.83;;;;;;;;;;10502611;28;20537;-75
2023/04/22 07:55:28;;;;;;;1.95;1.70;;;;;;;;;;10504781;28;20043;-76
2023/04/22 08:00:33;;;;;;;2.65;1.60;;;;;;;;;;10503546;28;20036;-77
2023/04/22 08:05:35;;;;;;;2.10;1.70;;;;;;;;;;10499045;28;20520;-76
2023/04/22 08:10:38;;;;;;;;;;;;;;;;;;10502864;28;20041;-77
2023/04/22 08:15:41;;;;;;;;;;;;;;;;;;10509355;28;19920;-76
2023/04/22 08:20:44;;;;;;;;;;;;;;;;;;10519190;28;20393;-75
2023/04/22 08:25:47;;;;;;;;;;;;;;;;;;10509543;28;20568;-75
2023/04/22 08:30:49;;;;;;;;;;;;;;;;;;10513831;28;20003;-77
2023/04/22 08:35:52;;;;;;;;;;;;;;;;;;10525154;28;19920;-76
2023/04/22 08:40:55;;;;;;;;;;;;;;;;;;10527833;28;20539;-76
2023/04/22 08:46:01;;;;;;;1.95;1.73;;;;;;;;;;10527128;27;19920;-76
2023/04/22 08:51:05;;;;;;;1.98;1.75;;;;;;;;;;10552983;27;20420;-77
2023/04/22 08:56:08;;;;;;;;;;;;;;;;;;10553262;28;20036;-76
2023/04/22 09:01:11;;;;;;;;;;;;;;;;;;10550499;27;19983;-76
2023/04/22 09:06:14;;;;;;;;;;;;;;;;;;10558845;27;19920;-77
2023/04/22 09:11:17;;;;;;;;;;;;;;;;;;10541800;27;19938;-76
2023/04/22 09:16:19;;;;;;;;;;;;;;;;;;10554205;27;19955;-75
2023/04/22 09:21:23;;;;;;;;;;;;;;;;;;10546829;27;20015;-76
2023/04/22 09:26:26;;;;;;;;;;;;;;;;;;10554154;28;19920;-76
2023/04/22 09:31:30;;;;;;;2.78;2.10;;;;;;;;;;10544800;27;19935;-75
2023/04/22 09:36:36;;;;;;;;;;;;;;;;;;10557227;27;20035;-76
2023/04/22 09:41:38;;;;;;;;;;;;;;;;;;10543139;28;19920;-76
2023/04/22 09:46:41;;;;;;;;;;;;;;;;;;10552347;27;20437;-76
2023/04/22 09:51:43;;;;;;;;;;;;;;;;;;10548804;27;19919;-77
2023/04/22 09:56:47;;;;;;;;;;;;;;;;;;10543817;27;19924;-77
2023/04/22 10:01:49;;;;;;;;;;;;;;;;;;10544144;27;19955;-77
2023/04/22 10:06:52;;;;;;;;;;;;;;;;;;10539134;27;19920;-77
2023/04/22 10:11:54;;;;;;;;;;;;;;;;;;10543235;27;19924;-76
2023/04/22 10:16:57;;;;;;;;;;;;;;;;;;10551293;27;20609;-77
2023/04/22 10:21:59;;;;;;;;;;;;;;;;;;10551959;27;19926;-76
2023/04/22 10:27:05;;;;;;;;;;;;;;;;;;10552320;27;19951;-76
2023/04/22 10:32:07;;;;;;;;;;;;;;;;;;10555999;27;19934;-77
2023/04/22 10:37:13;;;;;;;;;;;;;;;;;;10556754;28;19926;-77
2023/04/22 10:42:15;;;;;;;;;;;;;;;;;;10555593;27;19923;-77
2023/04/22 10:47:17;;;;;;;;;;;;;;;;;;10566641;27;19924;-77
2023/04/22 10:52:20;;;;;;;;;;;;;;;;;;10551546;27;19925;-77
2023/04/22 10:57:23;;;;;;;;;;;;;;;;;;10542817;28;19946;-77
2023/04/22 11:02:26;;;;;;;;;;;;;;;;;;10537859;27;19938;-77
2023/04/22 11:07:30;;;;;;;;;;;;;;;;;;10546900;28;19935;-77
2023/04/22 11:12:33;;;;;;;;;;;;;;;;;;10544427;27;20332;-83
2023/04/22 11:17:36;;;;;;;;;;;;;;;;;;10532265;28;20000;-84
2023/04/22 11:22:38;;;;;;;;;;;;;;;;;;10560080;27;19973;-86
2023/04/22 11:27:43;;;;;;;;;;;;;;;;;;10557749;27;20465;-86
2023/04/22 11:32:49;;;;;;;;;;;;;;;;;;10560485;27;19950;-87
2023/04/22 11:37:56;;;;;;;;;;;;;;;;;;10558010;27;19935;-87
2023/04/22 11:43:17;;;;;;;;;;;;;;;;;;10554848;28;19926;-88
2023/04/22 11:48:23;;;;;;;;;;;;;;;;;;10522609;27;19926;-84
2023/04/22 11:53:32;;;;;;;;;;;;;;;;;;10546299;28;20064;-86
2023/04/22 11:58:40;;;;;;;;;;;;;;;;;;10541377;27;19926;-88
2023/04/22 12:03:50;;;;;;;;;;;;;;;;;;10553366;27;19953;-86
2023/04/22 12:08:55;;;;;;;;;;;;;;;;;;10546013;27;19928;-88
2023/04/22 12:14:11;;;;;;;;;;;;;;;;;;10549933;28;20471;-87
2023/04/22 12:19:16;;;;;;;;;;;;;;;;;;10548537;27;19923;-87
2023/04/22 12:24:30;;;;;;;;;;;;;;;;;;10532523;28;19981;-86
2023/04/22 12:29:36;;;;;;;;;;;;;;;;;;10555448;27;19920;-88
2023/04/22 12:35:02;;;;;;;;;;;;;;;;;;10545079;28;19976;-87
2023/04/22 12:40:06;;;;;;;;;;;;;;;;;;10556885;27;20410;-89
2023/04/22 12:45:10;;;;;;;;;;;;;;;;;;10573735;27;19928;-86
2023/04/22 12:56:07;;;;;;;;;;;;;;;;;;10565403;27;19920;-77
2023/04/22 13:01:11;;;;;;;;;;;;;;;;;;10575469;27;19923;-78
2023/04/22 13:06:15;;;;;;;;;;;;;;;;;;10562571;27;19988;-77
2023/04/22 13:11:20;;;;;;;;;;;;;;;;;;10585160;27;19920;-76
2023/04/22 13:16:31;;;;;;;;;;;;;;;;;;10565119;27;19955;-76
2023/04/22 13:21:49;;;;;;;;;;;;;;;;;;10559070;27;20519;-77
2023/04/22 13:26:53;;;;;;;;;;;;;;;;;;10564277;27;19931;-77
2023/04/22 13:32:01;;;;;;;;;;;;;;;;;;10551373;28;19920;-77
2023/04/22 13:37:10;;;;;;;;;;;;;;;;;;10570523;27;19928;-76
2023/04/22 13:42:18;;;;;;;;;;;;;;;;;;10549095;27;19965;-76
2023/04/22 13:52:46;;;;;;;;;;;;;;;;;;10584192;27;20391;-76
2023/04/22 13:58:04;;;;;;;;;;;;;;;;;;10568279;27;19927;-76
2023/04/22 14:08:34;;;;;;;;;;;;;;;;;;10561298;28;19919;-76
2023/04/22 14:13:37;;;;;;;;;;;;;;;;;;10558847;28;19927;-77
2023/04/22 14:18:41;;;;;;;;;;;;;;;;;;10550589;27;20339;-77
2023/04/22 14:24:00;;;;;;;;;;;;;;;;;;10550383;27;20658;-77
2023/04/22 14:29:03;;;;;;;;;;;;;;;;;;10567424;28;20026;-77
2023/04/22 14:34:13;;;;;;;;;;;;;;;;;;10566171;27;20274;-77
2023/04/22 14:39:24;;;;;;;;;;;;;;;;;;10535050;28;19919;-76
2023/04/22 14:44:35;;;;;;;;;;;;;;;;;;10573174;27;20019;-77
2023/04/22 14:49:43;;;;;;;;;;;;;;;;;;10541568;27;19997;-77
2023/04/22 14:54:55;;;;;;;;;;;;;;;;;;10570324;27;19924;-77
2023/04/22 15:00:03;;;;;;;;;;;;;;;;;;10545214;27;20011;-77
2023/04/22 15:05:11;;;;;;;;;;;;;;;;;;10557968;27;20287;-76
2023/04/22 15:10:17;;;;;;;;;;;;;;;;;;10546115;27;19938;-76
2023/04/22 15:15:20;;;;;;;;;;;;;;;;;;10531746;28;20003;-76
2023/04/22 15:20:24;;;;;;;;;;;;;;;;;;10536225;27;19920;-76
2023/04/22 15:25:49;;;;;;;5.80;2.85;;;;;;;;;;10518666;28;20504;-78
2023/04/22 15:31:01;;;;;;;2.45;1.40;;;;;;;;;;10536722;28;20032;-77
2023/04/22 15:36:05;;;;;;;2.80;1.40;;;;;;;;;;10527872;27;20075;-77
2023/04/22 15:41:09;;;;;;;1.67;1.42;;;;;;;;;;10543820;27;20038;-77
2023/04/22 15:46:24;;;;;;;1.33;1.17;;;;;;;;;;10512615;28;20206;-77
2023/04/22 15:51:36;;;;;;;2.13;1.52;;;;;;;;;;10537092;28;20043;-76
2023/04/22 15:56:45;;;;;;;;;;;;;;;;;;10540339;28;20136;-77
2023/04/22 16:01:54;;;;;;;4.93;1.60;;;;;;;;;;10578303;27;19947;-77
2023/04/22 16:07:10;;;;;;;4.45;1.70;;;;;;;;;;10519972;28;20036;-77
2023/04/22 16:12:20;;;;;;;2.88;1.60;;;;;;;;;;10538529;28;20056;-77
2023/04/22 16:17:28;;;;;;;2.55;1.50;;;;;;;;;;10549771;28;20044;-77
2023/04/22 16:22:33;;;;;;;2.75;1.58;;;;;;;;;;10563388;27;20126;-76
2023/04/22 16:27:38;;;;;;;3.20;1.52;;;;;;;;;;10571230;27;20043;-76
2023/04/22 16:32:44;;;;;;;3.50;1.70;;;;;;;;;;10551753;28;20132;-76
2023/04/22 16:37:56;;;;;;;3.47;1.50;;;;;;;;;;10541241;27;20073;-76
2023/04/22 16:43:06;;;;;;;4.07;1.85;;;;;;;;;;10555418;27;20048;-77
2023/04/22 16:48:12;;;;;;;3.13;1.60;;;;;;;;;;10549471;27;20166;-77
2023/04/22 16:53:17;;;;;;;4.25;1.73;;;;;;;;;;10561256;27;20032;-76
2023/04/22 16:58:26;;;;;;;2.58;1.70;;;;;;;;;;10562411;27;20044;-76
2023/04/22 17:03:35;;;;;;;1.65;1.20;;;;;;;;;;10547729;27;20545;-78
2023/04/22 17:08:39;;;;;;;2.88;1.83;;;;;;;;;;10527870;27;20115;-78
2023/04/22 17:13:51;;;;;;;2.38;1.23;;;;;;;;;;10553688;28;20044;-77
2023/04/22 17:24:26;;;;;;;3.60;1.98;;;;;;;;;;10599842;27;20420;-76
2023/04/22 17:29:29;;;;;;;3.00;1.80;;;;;;;;;;10594641;28;20043;-76
2023/04/22 17:34:32;;;;;;;3.78;1.95;;;;;;;;;;10596702;28;20043;-76
2023/04/22 17:39:38;;;;;;;6.30;2.03;;;;;;;;;;10599477;28;20093;-77
2023/04/22 17:44:42;;;;;;;2.45;1.75;;;;;;;;;;10602170;27;20090;-76
2023/04/22 17:49:44;;;;;;;4.65;1.70;;;;;;;;;;10572331;28;20075;-77
2023/04/22 17:54:50;;;;;;;2.67;1.52;;;;;;;;;;10599233;28;20446;-76
2023/04/22 17:59:53;;;;;;;2.80;1.60;;;;;;;;;;10601978;28;20043;-76
2023/04/22 18:04:57;;;;;;;4.72;2.30;;;;;;;;;;10596785;27;20484;-77
2023/04/22 18:10:01;;;;;;;3.55;1.70;;;;;;;;;;10597296;27;20464;-77
2023/04/22 18:15:06;;;;;;;6.03;1.98;;;;;;;;;;10603929;27;20423;-76
2023/04/22 18:20:11;;;;;;;5.88;2.58;;;;;;;;;;10580109;27;20031;-76
2023/04/22 18:25:21;;;;;;;5.32;2.70;;;;;;;;;;10595611;27;20054;-77
2023/04/22 18:30:24;;;;;;;2.70;1.83;;;;;;;;;;10594697;27;20051;-77
2023/04/22 18:35:30;;;;;;;4.57;1.95;;;;;;;;;;10567766;28;20092;-76
2023/04/22 18:40:34;;;;;;;3.55;1.80;;;;;;;;;;10557228;28;20485;-77
2023/04/22 18:45:37;;;;;;;6.93;2.60;;;;;;;;;;10568327;28;20107;-75
2023/04/22 18:50:40;;;;;;;6.60;3.10;;;;;;;;;;10572185;28;20049;-76
2023/04/22 18:55:44;;;;;;;5.57;3.38;;;;;;;;;;10571714;27;20090;-77
2023/04/22 19:00:50;;;;;;;5.68;3.15;;;;;;;;;;10573420;28;20052;-78
2023/04/22 19:05:53;;;;;;;7.85;3.03;;;;;;;;;;10570668;28;20036;-77
2023/04/22 19:10:57;;;;;;;6.53;2.80;;;;;;;;;;10552817;28;20063;-77
2023/04/22 19:16:00;;;;;;;9.68;3.35;;;;;;;;;;10565238;27;20506;-77
2023/04/22 19:21:05;;;;;;;8.15;3.60;;;;;;;;;;10560496;27;20702;-75
2023/04/22 19:26:10;;;;;;;7.13;2.90;;;;;;;;;;10554361;27;20067;-78
2023/04/22 19:31:15;;;;;;;5.55;3.00;;;;;;;;;;10547748;28;20034;-75
2023/04/22 19:36:18;;;;;;;6.88;3.40;;;;;;;;;;10564478;27;20599;-76
2023/04/22 19:41:22;;;;;;;7.80;3.53;;;;;;;;;;10555299;27;20039;-77
2023/04/22 19:46:25;;;;;;;8.65;4.05;;;;;;;;;;10565421;28;20130;-77
2023/04/22 19:51:28;;;;;;;8.70;4.50;;;;;;;;;;10561204;28;20043;-76
2023/04/22 19:56:32;;;;;;;5.93;2.67;;;;;;;;;;10562425;27;20104;-77
2023/04/22 20:01:35;;;;;;;6.47;3.03;;;;;;;;;;10559323;27;20944;-75
2023/04/22 20:06:39;;;;;;;11.38;3.75;;;;;;;;;;10535565;27;20134;-77
2023/04/22 20:11:42;;;;;;;;;;;;;;;;;;10557580;28;20046;-76
2023/04/22 20:16:46;;;;;;;10.82;3.55;;;;;;;;;;10563130;27;20485;-77
2023/04/22 20:21:50;;;;;;;5.93;2.97;;;;;;;;;;10560446;28;20074;-77
2023/04/22 20:26:53;;;;;;;;;;;;;;;;;;10555458;28;20059;-77
2023/04/22 20:31:58;;;;;;;7.05;2.25;;;;;;;;;;10560434;28;19924;-77
2023/04/22 20:37:02;;;;;;;5.43;2.35;;;;;;;;;;10561730;28;20035;-78
2023/04/22 20:42:05;;;;;;;4.38;2.30;;;;;;;;;;10550772;28;20028;-75
2023/04/22 20:47:10;;;;;;;7.63;2.75;;;;;;;;;;10558926;27;20598;-76
2023/04/22 20:52:14;;;;;;;6.10;2.40;;;;;;;;;;10541484;28;20039;-77
2023/04/22 20:57:17;;;;;;;5.53;2.13;;;;;;;;;;10558986;28;20094;-76
2023/04/22 21:02:23;;;;;;;7.90;2.53;;;;;;;;;;10558539;28;20812;-78
2023/04/22 21:07:30;;;;;;;5.47;2.15;;;;;;;;;;10535702;28;21868;-76
2023/04/22 21:12:33;;;;;;;4.15;2.35;;;;;;;;;;10560020;27;20538;-76
2023/04/22 21:17:40;;;;;;;7.27;2.40;;;;;;;;;;10556380;28;20042;-76
2023/04/22 21:22:44;;;;;;;9.25;3.60;;;;;;;;;;10556278;28;20366;-75
2023/04/22 21:27:47;;;;;;;5.07;2.60;;;;;;;;;;10565515;28;20051;-76
2023/04/22 21:32:51;;;;;;;6.43;2.90;;;;;;;;;;10560381;28;20285;-77
2023/04/22 21:37:54;;;;;;;6.22;3.22;;;;;;;;;;10560357;28;20048;-75
2023/04/22 21:42:58;;;;;;;3.53;2.30;;;;;;;;;;10559889;28;20120;-78
2023/04/22 21:48:05;;;;;;;5.25;2.60;;;;;;;;;;10544542;28;20120;-76
2023/04/22 21:53:08;;;;;;;9.30;2.80;;;;;;;;;;10553831;28;20089;-77
2023/04/22 21:58:11;;;;;;;7.07;3.00;;;;;;;;;;10561248;28;20039;-77
2023/04/22 22:03:15;;;;;;;4.97;2.47;;;;;;;;;;10550714;28;20062;-75
2023/04/22 22:08:18;;;;;;;4.20;2.40;;;;;;;;;;10559578;27;20043;-76
2023/04/22 22:13:21;;;;;;;5.40;2.45;;;;;;;;;;10567390;27;20043;-76
2023/04/22 22:18:25;;;;;;;4.43;1.97;;;;;;;;;;10566393;27;20042;-77
2023/04/22 22:23:28;;;;;;;4.30;2.63;;;;;;;;;;10548722;27;20054;-77
2023/04/22 22:28:31;;;;;;;5.35;2.30;;;;;;;;;;10560437;28;20642;-78
2023/04/22 22:33:35;;;;;;;4.93;2.40;;;;;;;;;;10567513;28;20038;-77
2023/04/22 22:38:38;;;;;;;3.55;2.28;;;;;;;;;;10567566;27;20179;-77
2023/04/22 22:43:40;;;;;;;6.25;2.80;;;;;;;;;;10566596;27;20392;-76
2023/04/22 22:48:45;;;;;;;4.20;2.30;;;;;;;;;;10549780;28;20067;-76
2023/04/22 22:53:48;;;;;;;4.47;2.40;;;;;;;;;;10564727;28;20063;-76
2023/04/22 22:58:52;;;;;;;3.40;2.10;;;;;;;;;;10563763;28;20094;-76
2023/04/22 23:03:56;;;;;;;6.10;2.60;;;;;;;;;;10567639;27;20515;-76
2023/04/22 23:09:00;;;;;;;6.07;2.80;;;;;;;;;;10547909;27;20545;-75
2023/04/22 23:14:03;;;;;;;4.30;2.40;;;;;;;;;;10562006;28;20385;-76
2023/04/22 23:19:08;;;;;;;5.57;2.60;;;;;;;;;;10564209;27;20371;-75
2023/04/22 23:24:12;;;;;;;4.93;2.50;;;;;;;;;;10601934;27;20051;-76
2023/04/22 23:29:17;;;;;;;3.72;2.42;;;;;;;;;;10590670;28;20036;-77
2023/04/22 23:34:27;;;;;;;5.63;2.58;;;;;;;;;;10565263;27;20465;-76
2023/04/22 23:39:38;;;;;;;5.03;2.33;;;;;;;;;;10571054;27;20526;-76
2023/04/22 23:44:47;;;;;;;4.18;2.40;;;;;;;;;;10572112;28;20157;-77
2023/04/22 23:49:58;;;;;;;3.20;2.10;;;;;;;;;;10548022;27;20120;-77
2023/04/22 23:55:04;;;;;;;6.20;2.58;;;;;;;;;;10543050;27;20036;-76
